createdAt,value
2018-11-20T00:01:42.125Z,10.70
2018-11-20T00:07:16.596Z,12.85
2018-11-20T00:12:45.061Z,11.33
2018-11-20T00:18:06.181Z,12.20
2018-11-20T00:23:27.301Z,11.35
2018-11-20T00:28:39.499Z,12.33
2018-11-20T00:33:59.353Z,12.23
2018-11-20T00:39:33.822Z,12.37
2018-11-20T00:44:53.057Z,13.28
2018-11-20T00:50:05.950Z,13.18
2018-11-20T00:56:07.808Z,13.32
2018-11-20T01:01:33.822Z,13.15
2018-11-20T01:07:06.699Z,13.13
2018-11-20T01:12:27.475Z,13.75
2018-11-20T01:18:08.065Z,13.55
2018-11-20T01:23:36.424Z,13.53
2018-11-20T01:28:55.438Z,13.48
2018-11-20T01:34:16.310Z,12.68
2018-11-20T01:39:45.025Z,14.10
2018-11-20T01:45:06.251Z,14.47
2018-11-20T01:50:37.564Z,13.45
2018-11-20T01:55:58.358Z,12.85
2018-11-20T02:01:27.246Z,14.18
2018-11-20T02:06:48.450Z,15.48
2018-11-20T02:12:09.231Z,10.48
2018-11-20T02:17:53.089Z,14.68
2018-11-20T02:23:21.460Z,13.78
2018-11-20T02:28:42.522Z,14.40
2018-11-20T02:34:03.772Z,14.87
2018-11-20T02:39:25.824Z,12.03
2018-11-20T02:44:53.241Z,14.68
2018-11-20T02:50:14.149Z,15.10
2018-11-20T02:55:42.432Z,14.68
2018-11-20T03:01:11.262Z,15.00
2018-11-20T03:06:31.145Z,14.75
2018-11-20T03:12:02.249Z,15.08
2018-11-20T03:17:23.273Z,14.18
2018-11-20T03:22:44.330Z,14.65
2018-11-20T03:28:05.523Z,11.12
2018-11-20T03:33:25.612Z,13.45
2018-11-20T03:38:46.748Z,14.25
2018-11-20T03:44:14.867Z,12.90
2018-11-20T03:49:35.672Z,12.13
2018-11-20T03:54:48.196Z,13.35
2018-11-20T04:00:08.909Z,15.13
2018-11-20T04:05:40.337Z,10.48
2018-11-20T04:11:08.539Z,13.15
2018-11-20T04:16:36.535Z,14.13
2018-11-20T04:21:52.652Z,14.65
2018-11-20T04:27:17.604Z,14.00
2018-11-20T04:32:45.065Z,13.62
2018-11-20T04:38:00.452Z,13.62
2018-11-20T04:43:28.487Z,14.40
2018-11-20T04:48:46.812Z,13.22
2018-11-20T04:54:11.732Z,13.95
2018-11-20T04:59:36.702Z,14.87
2018-11-20T05:04:58.988Z,15.28
2018-11-20T05:10:11.901Z,13.65
2018-11-20T05:15:49.598Z,13.70
2018-11-20T05:21:21.011Z,15.38
2018-11-20T05:26:49.424Z,14.05
2018-11-20T05:32:18.691Z,13.65
2018-11-20T05:37:53.013Z,13.65
2018-11-20T05:43:33.339Z,14.13
2018-11-20T05:48:54.393Z,15.18
2018-11-20T05:54:15.188Z,14.18
2018-11-20T05:59:49.218Z,15.05
2018-11-20T06:05:20.413Z,16.30
2018-11-20T06:10:41.533Z,14.07
2018-11-20T06:16:02.360Z,13.48
2018-11-20T06:21:24.936Z,15.83
2018-11-20T06:26:49.805Z,15.35
2018-11-20T06:32:17.874Z,15.80
2018-11-20T06:37:38.787Z,15.68
2018-11-20T06:43:00.056Z,14.38
2018-11-20T06:48:37.736Z,14.43
2018-11-20T06:54:08.814Z,16.23
2018-11-20T06:59:39.825Z,15.95
2018-11-20T07:05:17.373Z,16.50
2018-11-20T07:10:38.682Z,15.38
2018-11-20T07:15:59.808Z,16.37
2018-11-20T07:21:12.523Z,15.13
2018-11-20T07:26:43.640Z,15.10
2018-11-20T07:32:07.511Z,16.10
2018-11-20T07:37:32.668Z,15.48
2018-11-20T07:43:04.277Z,15.15
2018-11-20T07:48:24.972Z,15.78
2018-11-20T07:53:49.928Z,15.95
2018-11-20T07:59:12.180Z,15.55
2018-11-20T08:04:33.386Z,14.80
2018-11-20T08:10:07.824Z,15.98
2018-11-20T08:15:33.086Z,15.13
2018-11-20T08:21:10.580Z,16.32
2018-11-20T08:26:34.838Z,16.27
2018-11-20T08:31:49.719Z,15.85
2018-11-20T08:37:17.786Z,14.90
2018-11-20T08:42:36.240Z,15.88
2018-11-20T08:47:56.297Z,16.02
2018-11-20T08:53:17.076Z,14.75
2018-11-20T08:58:37.873Z,16.60
2018-11-20T09:04:08.940Z,15.75
2018-11-20T09:09:43.454Z,16.23
2018-11-20T09:15:04.614Z,15.65
2018-11-20T09:20:25.504Z,17.23
2018-11-20T09:25:53.742Z,15.30
2018-11-20T09:31:13.995Z,15.28
2018-11-20T09:36:42.234Z,16.30
2018-11-20T09:42:11.828Z,16.07
2018-11-20T09:47:25.667Z,15.28
2018-11-20T09:52:50.838Z,15.65
2018-11-20T09:58:11.621Z,15.28
2018-11-20T10:03:26.319Z,16.57
2018-11-20T10:08:57.499Z,14.93
2018-11-20T10:14:25.296Z,15.25
2018-11-20T10:19:41.287Z,15.68
2018-11-20T10:25:02.086Z,15.40
2018-11-20T10:30:25.424Z,15.93
2018-11-20T10:35:56.913Z,15.88
2018-11-20T10:41:37.627Z,15.38
2018-11-20T10:46:55.989Z,15.68
2018-11-20T10:52:18.446Z,15.18
2018-11-20T10:57:39.987Z,15.78
2018-11-20T11:03:00.843Z,15.43
2018-11-20T11:08:21.828Z,15.78
2018-11-20T11:13:42.727Z,15.20
2018-11-20T11:19:05.323Z,15.98
2018-11-20T11:24:45.689Z,15.65
2018-11-20T11:30:10.524Z,15.78
2018-11-20T11:35:54.509Z,15.70
2018-11-20T11:41:25.741Z,15.65
2018-11-20T11:46:57.108Z,15.50
2018-11-20T11:52:25.520Z,15.05
2018-11-20T11:57:46.477Z,15.35
2018-11-20T12:08:28.924Z,14.58
2018-11-20T12:13:51.203Z,15.95
2018-11-20T12:19:12.505Z,14.38
2018-11-20T12:24:40.528Z,14.90
2018-11-20T12:30:13.441Z,14.55
2018-11-20T12:35:33.407Z,14.98
2018-11-20T12:40:53.650Z,14.65
2018-11-20T12:46:15.927Z,14.25
2018-11-20T12:51:36.796Z,12.85
2018-11-20T12:57:17.630Z,12.20
2018-11-20T13:02:55.254Z,12.10
2018-11-20T13:08:17.600Z,11.68
2018-11-20T13:13:33.284Z,12.45
2018-11-20T13:19:07.367Z,12.10
2018-11-20T13:24:41.678Z,12.88
2018-11-20T13:30:10.113Z,11.73
2018-11-20T13:35:31.041Z,12.23
2018-11-20T13:41:23.738Z,11.33
2018-11-20T13:46:46.760Z,11.60
2018-11-20T13:52:00.277Z,13.32
2018-11-20T13:57:18.981Z,12.68
2018-11-20T14:02:31.519Z,12.78
2018-11-20T14:07:52.642Z,12.35
2018-11-20T14:13:07.922Z,13.60
2018-11-20T14:18:36.834Z,12.68
2018-11-20T14:23:57.821Z,12.88
2018-11-20T14:29:18.693Z,12.73
2018-11-20T14:34:39.714Z,13.38
2018-11-20T14:40:02.006Z,12.33
2018-11-20T14:45:27.959Z,14.63
2018-11-20T14:51:05.782Z,13.20
2018-11-20T14:56:28.420Z,14.07
2018-11-20T15:01:50.615Z,14.35
2018-11-20T15:07:15.764Z,13.88
2018-11-20T15:12:36.982Z,14.63
2018-11-20T15:18:17.275Z,14.30
2018-11-20T15:23:26.205Z,15.15
2018-11-20T15:29:03.430Z,14.25
2018-11-20T15:34:40.705Z,13.70
2018-11-20T15:40:01.609Z,14.98
2018-11-20T15:45:26.694Z,14.90
2018-11-20T15:50:47.752Z,20.82
2018-11-20T15:56:25.002Z,16.82
2018-11-20T16:01:47.297Z,15.05
2018-11-20T16:07:13.948Z,15.20
2018-11-20T16:12:45.278Z,15.85
2018-11-20T16:18:10.266Z,15.23
2018-11-20T16:23:44.586Z,15.18
2018-11-20T16:29:12.633Z,15.48
2018-11-20T16:35:37.209Z,16.77
2018-11-20T16:40:53.796Z,16.62
2018-11-20T16:46:13.878Z,15.58
2018-11-20T16:51:35.964Z,15.13
2018-11-20T16:57:15.968Z,15.75
2018-11-20T17:02:36.065Z,16.62
2018-11-20T17:08:15.827Z,17.23
2018-11-20T17:18:04.457Z,15.60
2018-11-20T17:23:44.375Z,16.65
2018-11-20T17:29:08.509Z,14.60
2018-11-20T17:34:45.363Z,15.70
2018-11-20T17:40:06.881Z,14.68
2018-11-20T17:45:27.585Z,16.48
2018-11-20T17:50:49.141Z,14.80
2018-11-20T17:56:22.798Z,15.63
2018-11-20T18:01:43.267Z,16.07
2018-11-20T18:06:55.899Z,15.40
2018-11-20T18:12:09.471Z,15.18
2018-11-20T18:17:46.003Z,16.85
2018-11-20T18:23:25.695Z,16.23
2018-11-20T18:28:45.729Z,15.65
2018-11-20T18:34:24.824Z,16.05
2018-11-20T18:39:58.407Z,16.27
2018-11-20T18:45:18.587Z,16.85
2018-11-20T18:50:40.116Z,15.18
2018-11-20T18:56:00.378Z,15.38
2018-11-20T19:01:22.772Z,15.43
2018-11-20T19:07:02.372Z,14.75
2018-11-20T19:12:30.215Z,15.18
2018-11-20T19:18:03.780Z,16.50
2018-11-20T19:23:37.523Z,15.23
2018-11-20T19:29:04.863Z,15.58
2018-11-20T19:34:38.662Z,16.75
2018-11-20T19:40:12.349Z,14.40
2018-11-20T19:45:30.268Z,16.37
2018-11-20T19:50:44.378Z,15.68
2018-11-20T19:56:14.843Z,15.03
2018-11-20T20:01:30.201Z,15.80
2018-11-20T20:06:50.786Z,17.32
2018-11-20T20:12:15.179Z,15.20
2018-11-20T20:17:35.998Z,15.03
2018-11-20T20:22:47.661Z,16.12
2018-11-20T20:28:07.962Z,15.88
2018-11-20T20:33:27.973Z,15.50
2018-11-20T20:38:40.019Z,16.02
2018-11-20T20:43:59.069Z,15.10
2018-11-20T20:49:14.370Z,14.73
2018-11-20T20:54:41.709Z,14.38
2018-11-20T21:00:06.176Z,13.72
2018-11-20T21:05:46.139Z,15.72
2018-11-20T21:11:16.491Z,14.33
2018-11-20T21:16:44.148Z,16.15
2018-11-20T21:22:04.085Z,14.73
2018-11-20T21:27:22.357Z,14.78
2018-11-20T21:38:01.107Z,15.53
2018-11-20T21:43:21.444Z,15.13
2018-11-20T21:48:42.705Z,14.05
2018-11-20T21:54:10.630Z,15.40
2018-11-20T21:59:35.082Z,15.95
2018-11-20T22:04:55.083Z,15.48
2018-11-20T22:10:15.119Z,15.78
2018-11-20T22:15:42.571Z,15.30
2018-11-20T22:21:02.846Z,15.60
2018-11-20T22:26:33.095Z,16.02
2018-11-20T22:31:53.373Z,14.80
2018-11-20T22:37:10.285Z,15.40
2018-11-20T22:42:33.400Z,14.50
2018-11-20T22:47:52.893Z,16.07
2018-11-20T22:53:20.091Z,16.55
2018-11-20T22:58:27.265Z,15.85
2018-11-20T23:03:54.651Z,17.00
2018-11-20T23:08:56.600Z,17.10
2018-11-20T23:13:58.483Z,16.62
2018-11-20T23:19:00.505Z,16.32
2018-11-20T23:24:02.383Z,16.27
2018-11-20T23:29:04.319Z,16.55
2018-11-20T23:34:06.235Z,17.20
2018-11-20T23:39:08.797Z,17.85
2018-11-20T23:44:10.769Z,16.30
2018-11-20T23:49:15.464Z,17.05
2018-11-20T23:54:14.674Z,16.00
2018-11-20T23:59:17.036Z,16.45
